sensor_id;sensor_type;location;lat;lon;timestamp;pressure;altitude;pressure_sealevel;temperature;humidity
14689;BME280;7432;48.728;9.154;2023-09-18T00:01:34;146472.84;;;19.14;83.59
14689;BME280;7432;48.728;9.154;2023-09-18T00:04:00;146465.56;;;19.11;83.14
14689;BME280;7432;48.728;9.154;2023-09-18T00:06:26;146452.16;;;19.05;83.34
14689;BME280;7432;48.728;9.154;2023-09-18T00:08:53;146449.75;;;19.04;83.79
14689;BME280;7432;48.728;9.154;2023-09-18T00:11:19;146441.19;;;19.01;84.08
14689;BME280;7432;48.728;9.154;2023-09-18T00:13:45;146443.59;;;19.02;84.14
14689;BME280;7432;48.728;9.154;2023-09-18T00:16:12;146442.44;;;19.01;84.31
14689;BME280;7432;48.728;9.154;2023-09-18T00:18:40;146435.13;;;18.98;84.47
14689;BME280;7432;48.728;9.154;2023-09-18T00:21:07;146426.56;;;18.94;84.34
14689;BME280;7432;48.728;9.154;2023-09-18T00:23:35;146418.03;;;18.91;84.99
14689;BME280;7432;48.728;9.154;2023-09-18T00:26:01;146419.28;;;18.91;84.67
14689;BME280;7432;48.728;9.154;2023-09-18T00:28:28;146409.53;;;18.87;85.06
14689;BME280;7432;48.728;9.154;2023-09-18T00:30:54;146402.25;;;18.84;85.23
14689;BME280;7432;48.728;9.154;2023-09-18T00:33:21;146391.25;;;18.80;85.40
14689;BME280;7432;48.728;9.154;2023-09-18T00:35:49;146402.25;;;18.84;84.84
14689;BME280;7432;48.728;9.154;2023-09-18T00:38:16;146403.47;;;18.85;85.08
14689;BME280;7432;48.728;9.154;2023-09-18T00:40:42;146408.31;;;18.87;85.04
14689;BME280;7432;48.728;9.154;2023-09-18T00:43:09;146408.31;;;18.87;85.35
14689;BME280;7432;48.728;9.154;2023-09-18T00:45:39;146431.44;;;18.97;84.97
14689;BME280;7432;48.728;9.154;2023-09-18T00:48:06;146455.81;;;19.07;84.37
14689;BME280;7432;48.728;9.154;2023-09-18T00:50:32;146461.91;;;19.09;84.45
14689;BME280;7432;48.728;9.154;2023-09-18T00:53:01;146474.09;;;19.14;84.45
14689;BME280;7432;48.728;9.154;2023-09-18T00:55:29;146486.25;;;19.19;84.76
14689;BME280;7432;48.728;9.154;2023-09-18T00:57:57;146497.22;;;19.24;84.38
14689;BME280;7432;48.728;9.154;2023-09-18T01:00:24;146515.53;;;19.31;84.44
14689;BME280;7432;48.728;9.154;2023-09-18T01:02:50;146524.00;;;19.35;84.27
14689;BME280;7432;48.728;9.154;2023-09-18T01:05:16;146528.91;;;19.37;84.28
14689;BME280;7432;48.728;9.154;2023-09-18T01:07:45;146532.59;;;19.38;83.73
14689;BME280;7432;48.728;9.154;2023-09-18T01:10:13;146544.78;;;19.43;83.71
14689;BME280;7432;48.728;9.154;2023-09-18T01:12:45;146546.00;;;19.44;83.89
14689;BME280;7432;48.728;9.154;2023-09-18T01:15:18;146548.47;;;19.45;83.45
14689;BME280;7432;48.728;9.154;2023-09-18T01:17:48;146554.53;;;19.47;83.17
14689;BME280;7432;48.728;9.154;2023-09-18T01:20:14;146563.03;;;19.51;83.26
14689;BME280;7432;48.728;9.154;2023-09-18T01:22:42;146575.25;;;19.56;83.06
14689;BME280;7432;48.728;9.154;2023-09-18T01:25:09;146576.44;;;19.57;83.13
14689;BME280;7432;48.728;9.154;2023-09-18T01:27:36;146587.44;;;19.61;83.10
14689;BME280;7432;48.728;9.154;2023-09-18T01:30:02;146605.72;;;19.69;83.08
14689;BME280;7432;48.728;9.154;2023-09-18T01:32:31;146616.66;;;19.73;82.26
14689;BME280;7432;48.728;9.154;2023-09-18T01:35:00;146623.97;;;19.76;82.69
14689;BME280;7432;48.728;9.154;2023-09-18T01:37:29;146621.56;;;19.75;82.46
14689;BME280;7432;48.728;9.154;2023-09-18T01:39:58;146622.75;;;19.76;82.31
14689;BME280;7432;48.728;9.154;2023-09-18T01:42:25;146630.06;;;19.79;82.29
14689;BME280;7432;48.728;9.154;2023-09-18T01:44:53;146639.84;;;19.83;81.91
14689;BME280;7432;48.728;9.154;2023-09-18T01:47:21;146659.34;;;19.91;80.50
14689;BME280;7432;48.728;9.154;2023-09-18T01:49:48;146670.28;;;19.95;79.83
14689;BME280;7432;48.728;9.154;2023-09-18T01:52:15;146703.19;;;20.09;78.26
14689;BME280;7432;48.728;9.154;2023-09-18T01:54:41;146739.84;;;20.24;77.00
14689;BME280;7432;48.728;9.154;2023-09-18T01:57:09;146766.66;;;20.35;75.70
14689;BME280;7432;48.728;9.154;2023-09-18T01:59:37;146808.06;;;20.52;74.27
14689;BME280;7432;48.728;9.154;2023-09-18T02:02:04;146859.31;;;20.74;71.85
14689;BME280;7432;48.728;9.154;2023-09-18T02:04:32;146882.47;;;20.83;73.81
14689;BME280;7432;48.728;9.154;2023-09-18T02:06:59;146782.47;;;20.42;82.82
14689;BME280;7432;48.728;9.154;2023-09-18T02:09:25;146650.78;;;19.87;82.59
14689;BME280;7432;48.728;9.154;2023-09-18T02:11:52;146556.94;;;19.48;88.74
14689;BME280;7432;48.728;9.154;2023-09-18T02:14:19;146472.84;;;19.14;93.09
14689;BME280;7432;48.728;9.154;2023-09-18T02:16:46;146438.75;;;19.00;90.60
14689;BME280;7432;48.728;9.154;2023-09-18T02:19:14;146403.47;;;18.85;93.98
14689;BME280;7432;48.728;9.154;2023-09-18T02:21:42;146374.22;;;18.73;97.35
14689;BME280;7432;48.728;9.154;2023-09-18T02:24:08;146349.88;;;18.63;98.94
14689;BME280;7432;48.728;9.154;2023-09-18T02:26:35;146336.47;;;18.57;100.00
14689;BME280;7432;48.728;9.154;2023-09-18T02:29:05;146334.03;;;18.56;100.00
14689;BME280;7432;48.728;9.154;2023-09-18T02:31:33;146325.50;;;18.53;100.00
14689;BME280;7432;48.728;9.154;2023-09-18T02:33:59;146318.19;;;18.50;100.00
14689;BME280;7432;48.728;9.154;2023-09-18T02:36:25;146302.34;;;18.43;100.00
14689;BME280;7432;48.728;9.154;2023-09-18T02:38:52;146288.94;;;18.38;100.00
14689;BME280;7432;48.728;9.154;2023-09-18T02:41:18;146284.09;;;18.35;100.00
14689;BME280;7432;48.728;9.154;2023-09-18T02:43:44;146282.88;;;18.35;98.25
14689;BME280;7432;48.728;9.154;2023-09-18T02:46:11;146279.19;;;18.33;98.10
14689;BME280;7432;48.728;9.154;2023-09-18T02:48:39;146281.63;;;18.34;97.18
14689;BME280;7432;48.728;9.154;2023-09-18T02:51:05;146282.88;;;18.35;96.16
14689;BME280;7432;48.728;9.154;2023-09-18T02:53:31;146278.00;;;18.33;97.71
14689;BME280;7432;48.728;9.154;2023-09-18T02:55:59;146265.78;;;18.28;97.32
14689;BME280;7432;48.728;9.154;2023-09-18T02:58:25;146242.69;;;18.18;99.22
14689;BME280;7432;48.728;9.154;2023-09-18T03:00:55;146234.16;;;18.15;99.60
14689;BME280;7432;48.728;9.154;2023-09-18T03:03:22;146222.00;;;18.10;100.00
14689;BME280;7432;48.728;9.154;2023-09-18T03:05:50;146214.69;;;18.07;100.00
14689;BME280;7432;48.728;9.154;2023-09-18T03:08:16;146206.16;;;18.03;100.00
14689;BME280;7432;48.728;9.154;2023-09-18T03:10:43;146198.88;;;18.00;100.00
14689;BME280;7432;48.728;9.154;2023-09-18T03:13:11;146193.97;;;17.98;100.00
14689;BME280;7432;48.728;9.154;2023-09-18T03:15:38;146195.22;;;17.99;100.00
14689;BME280;7432;48.728;9.154;2023-09-18T03:18:05;146192.81;;;17.98;100.00
14689;BME280;7432;48.728;9.154;2023-09-18T03:20:32;146192.81;;;17.98;100.00
14689;BME280;7432;48.728;9.154;2023-09-18T03:23:01;146170.88;;;17.89;100.00
14689;BME280;7432;48.728;9.154;2023-09-18T03:25:28;146173.28;;;17.90;100.00
14689;BME280;7432;48.728;9.154;2023-09-18T03:27:55;146169.66;;;17.88;100.00
14689;BME280;7432;48.728;9.154;2023-09-18T03:30:23;146178.19;;;17.92;100.00
14689;BME280;7432;48.728;9.154;2023-09-18T03:32:50;146181.81;;;17.93;100.00
14689;BME280;7432;48.728;9.154;2023-09-18T03:35:17;146180.59;;;17.93;100.00
14689;BME280;7432;48.728;9.154;2023-09-18T03:37:44;146179.41;;;17.92;100.00
14689;BME280;7432;48.728;9.154;2023-09-18T03:40:12;146176.97;;;17.91;100.00
14689;BME280;7432;48.728;9.154;2023-09-18T03:42:39;146181.81;;;17.93;100.00
14689;BME280;7432;48.728;9.154;2023-09-18T03:45:06;146181.81;;;17.93;100.00
14689;BME280;7432;48.728;9.154;2023-09-18T03:47:33;146198.88;;;18.00;100.00
14689;BME280;7432;48.728;9.154;2023-09-18T03:50:00;146207.38;;;18.04;100.00
14689;BME280;7432;48.728;9.154;2023-09-18T03:52:27;146220.75;;;18.09;100.00
14689;BME280;7432;48.728;9.154;2023-09-18T03:54:53;146219.53;;;18.09;100.00
14689;BME280;7432;48.728;9.154;2023-09-18T03:57:21;146222.00;;;18.10;100.00
14689;BME280;7432;48.728;9.154;2023-09-18T03:59:48;146234.16;;;18.15;100.00
14689;BME280;7432;48.728;9.154;2023-09-18T04:02:14;146252.41;;;18.22;100.00
14689;BME280;7432;48.728;9.154;2023-09-18T04:04:40;146260.94;;;18.26;100.00
14689;BME280;7432;48.728;9.154;2023-09-18T04:07:07;146267.03;;;18.28;100.00
14689;BME280;7432;48.728;9.154;2023-09-18T04:09:34;146273.09;;;18.31;100.00
14689;BME280;7432;48.728;9.154;2023-09-18T04:12:01;146264.63;;;18.27;100.00
14689;BME280;7432;48.728;9.154;2023-09-18T04:14:28;146252.41;;;18.22;99.87
14689;BME280;7432;48.728;9.154;2023-09-18T04:16:55;146259.72;;;18.25;99.47
14689;BME280;7432;48.728;9.154;2023-09-18T04:19:21;146265.78;;;18.28;100.00
14689;BME280;7432;48.728;9.154;2023-09-18T04:21:47;146269.47;;;18.29;100.00
14689;BME280;7432;48.728;9.154;2023-09-18T04:24:14;146263.38;;;18.27;100.00
14689;BME280;7432;48.728;9.154;2023-09-18T04:26:40;146252.41;;;18.22;100.00
14689;BME280;7432;48.728;9.154;2023-09-18T04:29:07;146256.09;;;18.24;100.00
14689;BME280;7432;48.728;9.154;2023-09-18T04:31:34;146257.31;;;18.24;99.45
14689;BME280;7432;48.728;9.154;2023-09-18T04:34:01;146257.31;;;18.24;100.00
14689;BME280;7432;48.728;9.154;2023-09-18T04:36:28;146279.19;;;18.33;100.00
14689;BME280;7432;48.728;9.154;2023-09-18T04:38:54;146284.09;;;18.35;99.73
14689;BME280;7432;48.728;9.154;2023-09-18T04:41:21;146271.91;;;18.30;100.00
14689;BME280;7432;48.728;9.154;2023-09-18T04:43:47;146278.00;;;18.33;100.00
14689;BME280;7432;48.728;9.154;2023-09-18T04:46:14;146279.19;;;18.33;100.00
14689;BME280;7432;48.728;9.154;2023-09-18T04:48:41;146278.00;;;18.33;100.00
14689;BME280;7432;48.728;9.154;2023-09-18T04:51:08;146268.25;;;18.29;100.00
14689;BME280;7432;48.728;9.154;2023-09-18T04:53:34;146263.38;;;18.27;100.00
14689;BME280;7432;48.728;9.154;2023-09-18T04:56:01;146254.84;;;18.23;100.00
14689;BME280;7432;48.728;9.154;2023-09-18T04:58:28;146269.47;;;18.29;99.42
14689;BME280;7432;48.728;9.154;2023-09-18T05:00:55;146240.22;;;18.17;97.87
14689;BME280;7432;48.728;9.154;2023-09-18T05:03:22;146268.25;;;18.29;96.80
14689;BME280;7432;48.728;9.154;2023-09-18T05:05:49;146247.53;;;18.20;97.33
14689;BME280;7432;48.728;9.154;2023-09-18T05:08:16;146262.16;;;18.26;96.68
14689;BME280;7432;48.728;9.154;2023-09-18T05:10:42;146274.31;;;18.31;95.37
14689;BME280;7432;48.728;9.154;2023-09-18T05:13:09;146290.16;;;18.38;93.71
14689;BME280;7432;48.728;9.154;2023-09-18T05:15:36;146292.56;;;18.39;93.14
14689;BME280;7432;48.728;9.154;2023-09-18T05:18:03;146307.19;;;18.45;92.00
14689;BME280;7432;48.728;9.154;2023-09-18T05:20:30;146304.78;;;18.44;92.42
14689;BME280;7432;48.728;9.154;2023-09-18T05:22:59;146281.63;;;18.34;93.57
14689;BME280;7432;48.728;9.154;2023-09-18T05:25:28;146299.88;;;18.42;94.74
14689;BME280;7432;48.728;9.154;2023-09-18T05:27:57;146313.31;;;18.48;93.71
14689;BME280;7432;48.728;9.154;2023-09-18T05:30:25;146295.03;;;18.40;94.52
14689;BME280;7432;48.728;9.154;2023-09-18T05:32:53;146282.88;;;18.35;93.26
14689;BME280;7432;48.728;9.154;2023-09-18T05:35:20;146285.25;;;18.36;94.08
14689;BME280;7432;48.728;9.154;2023-09-18T05:37:46;146274.31;;;18.31;93.29
14689;BME280;7432;48.728;9.154;2023-09-18T05:40:14;146281.63;;;18.34;93.31
14689;BME280;7432;48.728;9.154;2023-09-18T05:42:41;146280.41;;;18.34;93.77
14689;BME280;7432;48.728;9.154;2023-09-18T05:45:09;146287.72;;;18.37;93.06
14689;BME280;7432;48.728;9.154;2023-09-18T05:47:36;146309.66;;;18.46;93.03
14689;BME280;7432;48.728;9.154;2023-09-18T05:50:04;146326.72;;;18.53;94.32
14689;BME280;7432;48.728;9.154;2023-09-18T05:52:32;146342.56;;;18.60;94.58
14689;BME280;7432;48.728;9.154;2023-09-18T05:54:58;146351.09;;;18.63;92.72
14689;BME280;7432;48.728;9.154;2023-09-18T05:57:26;146354.75;;;18.65;92.81
14689;BME280;7432;48.728;9.154;2023-09-18T05:59:53;146371.75;;;18.72;92.33
14689;BME280;7432;48.728;9.154;2023-09-18T06:02:19;146379.06;;;18.75;91.53
14689;BME280;7432;48.728;9.154;2023-09-18T06:04:46;146376.66;;;18.74;91.74
14689;BME280;7432;48.728;9.154;2023-09-18T06:07:12;146375.44;;;18.73;91.52
14689;BME280;7432;48.728;9.154;2023-09-18T06:09:39;146354.75;;;18.65;91.61
14689;BME280;7432;48.728;9.154;2023-09-18T06:12:06;146373.00;;;18.72;91.62
14689;BME280;7432;48.728;9.154;2023-09-18T06:14:36;146381.53;;;18.76;91.40
14689;BME280;7432;48.728;9.154;2023-09-18T06:17:03;146368.13;;;18.70;92.24
14689;BME280;7432;48.728;9.154;2023-09-18T06:19:31;146373.00;;;18.72;92.36
14689;BME280;7432;48.728;9.154;2023-09-18T06:21:58;146382.75;;;18.76;93.00
14689;BME280;7432;48.728;9.154;2023-09-18T06:24:24;146385.16;;;18.77;94.08
14689;BME280;7432;48.728;9.154;2023-09-18T06:26:50;146373.00;;;18.72;95.09
14689;BME280;7432;48.728;9.154;2023-09-18T06:29:18;146355.97;;;18.65;96.19
14689;BME280;7432;48.728;9.154;2023-09-18T06:31:46;146342.56;;;18.60;96.96
14689;BME280;7432;48.728;9.154;2023-09-18T06:34:12;146336.47;;;18.57;97.47
14689;BME280;7432;48.728;9.154;2023-09-18T06:36:38;146338.88;;;18.58;97.73
14689;BME280;7432;48.728;9.154;2023-09-18T06:39:05;146347.44;;;18.62;98.09
14689;BME280;7432;48.728;9.154;2023-09-18T06:41:32;146346.19;;;18.61;98.20
14689;BME280;7432;48.728;9.154;2023-09-18T06:43:59;146357.19;;;18.66;98.81
14689;BME280;7432;48.728;9.154;2023-09-18T06:46:27;146346.19;;;18.61;99.10
14689;BME280;7432;48.728;9.154;2023-09-18T06:48:56;146357.19;;;18.66;98.42
14689;BME280;7432;48.728;9.154;2023-09-18T06:51:23;146352.28;;;18.64;99.19
14689;BME280;7432;48.728;9.154;2023-09-18T06:53:49;146355.97;;;18.65;99.35
14689;BME280;7432;48.728;9.154;2023-09-18T06:56:15;146355.97;;;18.65;98.55
14689;BME280;7432;48.728;9.154;2023-09-18T06:58:42;146352.28;;;18.64;98.45
14689;BME280;7432;48.728;9.154;2023-09-18T07:01:08;146369.34;;;18.71;98.02
14689;BME280;7432;48.728;9.154;2023-09-18T07:03:35;146376.66;;;18.74;97.56
14689;BME280;7432;48.728;9.154;2023-09-18T07:06:03;146385.16;;;18.77;98.08
14689;BME280;7432;48.728;9.154;2023-09-18T07:08:29;146405.88;;;18.86;97.42
14689;BME280;7432;48.728;9.154;2023-09-18T07:10:57;146413.19;;;18.89;97.32
14689;BME280;7432;48.728;9.154;2023-09-18T07:13:24;146409.53;;;18.87;97.56
14689;BME280;7432;48.728;9.154;2023-09-18T07:15:50;146435.13;;;18.98;97.28
14689;BME280;7432;48.728;9.154;2023-09-18T07:18:16;146469.22;;;19.12;96.02
14689;BME280;7432;48.728;9.154;2023-09-18T07:20:43;146491.13;;;19.21;94.31
14689;BME280;7432;48.728;9.154;2023-09-18T07:23:11;146517.94;;;19.32;91.85
14689;BME280;7432;48.728;9.154;2023-09-18T07:25:38;146544.78;;;19.43;90.83
14689;BME280;7432;48.728;9.154;2023-09-18T07:28:05;146537.47;;;19.40;90.42
14689;BME280;7432;48.728;9.154;2023-09-18T07:30:33;146547.22;;;19.44;89.21
14689;BME280;7432;48.728;9.154;2023-09-18T07:32:59;146547.22;;;19.44;88.90
14689;BME280;7432;48.728;9.154;2023-09-18T07:35:26;146566.72;;;19.52;86.43
14689;BME280;7432;48.728;9.154;2023-09-18T07:37:52;146583.75;;;19.60;86.85
14689;BME280;7432;48.728;9.154;2023-09-18T07:40:20;146593.53;;;19.64;85.88
14689;BME280;7432;48.728;9.154;2023-09-18T07:42:47;146597.16;;;19.65;86.22
14689;BME280;7432;48.728;9.154;2023-09-18T07:45:13;146606.94;;;19.69;86.46
14689;BME280;7432;48.728;9.154;2023-09-18T07:47:40;146622.75;;;19.76;85.13
14689;BME280;7432;48.728;9.154;2023-09-18T07:50:07;146642.25;;;19.84;85.25
14689;BME280;7432;48.728;9.154;2023-09-18T07:52:33;146703.19;;;20.09;83.57
14689;BME280;7432;48.728;9.154;2023-09-18T07:54:59;146752.00;;;20.29;82.69
14689;BME280;7432;48.728;9.154;2023-09-18T07:57:27;146825.16;;;20.59;79.95
14689;BME280;7432;48.728;9.154;2023-09-18T07:59:55;146878.84;;;20.82;80.46
14689;BME280;7432;48.728;9.154;2023-09-18T08:02:22;146901.97;;;20.91;79.17
14689;BME280;7432;48.728;9.154;2023-09-18T08:04:48;146900.75;;;20.91;78.30
14689;BME280;7432;48.728;9.154;2023-09-18T08:07:15;146903.22;;;20.92;78.00
14689;BME280;7432;48.728;9.154;2023-09-18T08:09:41;146867.81;;;20.77;78.06
14689;BME280;7432;48.728;9.154;2023-09-18T08:12:09;146852.00;;;20.71;78.39
14689;BME280;7432;48.728;9.154;2023-09-18T08:14:37;146819.09;;;20.57;80.00
14689;BME280;7432;48.728;9.154;2023-09-18T08:17:04;146798.34;;;20.48;79.23
14689;BME280;7432;48.728;9.154;2023-09-18T08:19:32;146788.56;;;20.44;79.71
14689;BME280;7432;48.728;9.154;2023-09-18T08:21:59;146762.97;;;20.34;79.30
14689;BME280;7432;48.728;9.154;2023-09-18T08:24:26;146732.47;;;20.21;80.17
14689;BME280;7432;48.728;9.154;2023-09-18T08:26:52;146716.59;;;20.15;81.41
14689;BME280;7432;48.728;9.154;2023-09-18T08:29:19;146717.81;;;20.15;80.46
14689;BME280;7432;48.728;9.154;2023-09-18T08:31:47;146708.06;;;20.11;81.10
14689;BME280;7432;48.728;9.154;2023-09-18T08:34:14;146669.06;;;19.95;82.97
14689;BME280;7432;48.728;9.154;2023-09-18T08:36:41;146655.66;;;19.89;84.25
14689;BME280;7432;48.728;9.154;2023-09-18T08:39:07;146622.75;;;19.76;84.98
14689;BME280;7432;48.728;9.154;2023-09-18T08:41:38;146599.63;;;19.66;85.32
14689;BME280;7432;48.728;9.154;2023-09-18T08:44:07;146593.53;;;19.64;85.52
14689;BME280;7432;48.728;9.154;2023-09-18T08:46:35;146566.72;;;19.52;86.09
14689;BME280;7432;48.728;9.154;2023-09-18T08:49:04;146535.06;;;19.39;87.32
14689;BME280;7432;48.728;9.154;2023-09-18T08:51:32;146471.63;;;19.13;89.19
14689;BME280;7432;48.728;9.154;2023-09-18T08:53:59;146426.56;;;18.94;90.49
14689;BME280;7432;48.728;9.154;2023-09-18T08:56:28;146374.22;;;18.73;93.08
14689;BME280;7432;48.728;9.154;2023-09-18T08:58:56;146349.88;;;18.63;93.02
14689;BME280;7432;48.728;9.154;2023-09-18T09:01:24;146337.72;;;18.58;94.50
14689;BME280;7432;48.728;9.154;2023-09-18T09:03:51;146340.13;;;18.59;94.52
14689;BME280;7432;48.728;9.154;2023-09-18T09:06:18;146336.47;;;18.57;95.88
14689;BME280;7432;48.728;9.154;2023-09-18T09:08:45;146335.25;;;18.57;97.21
14689;BME280;7432;48.728;9.154;2023-09-18T09:11:11;146317.00;;;18.49;97.21
14689;BME280;7432;48.728;9.154;2023-09-18T09:13:38;146308.44;;;18.46;98.03
14689;BME280;7432;48.728;9.154;2023-09-18T09:16:04;146308.44;;;18.46;98.41
14689;BME280;7432;48.728;9.154;2023-09-18T09:18:30;146310.88;;;18.47;99.27
14689;BME280;7432;48.728;9.154;2023-09-18T09:20:59;146303.56;;;18.44;99.10
14689;BME280;7432;48.728;9.154;2023-09-18T09:23:29;146327.94;;;18.54;99.69
14689;BME280;7432;48.728;9.154;2023-09-18T09:26:12;146314.56;;;18.48;99.66
14689;BME280;7432;48.728;9.154;2023-09-18T09:28:39;146310.88;;;18.47;100.00
14689;BME280;7432;48.728;9.154;2023-09-18T09:31:08;146315.78;;;18.49;100.00
14689;BME280;7432;48.728;9.154;2023-09-18T09:33:36;146321.88;;;18.51;100.00
14689;BME280;7432;48.728;9.154;2023-09-18T09:36:04;146313.31;;;18.48;100.00
14689;BME280;7432;48.728;9.154;2023-09-18T09:38:34;146314.56;;;18.48;100.00
14689;BME280;7432;48.728;9.154;2023-09-18T09:41:01;146323.09;;;18.52;100.00
14689;BME280;7432;48.728;9.154;2023-09-18T09:43:29;146330.41;;;18.55;100.00
14689;BME280;7432;48.728;9.154;2023-09-18T09:45:57;146341.34;;;18.59;100.00
14689;BME280;7432;48.728;9.154;2023-09-18T09:48:24;146352.28;;;18.64;99.85
14689;BME280;7432;48.728;9.154;2023-09-18T09:50:52;146342.56;;;18.60;99.61
14689;BME280;7432;48.728;9.154;2023-09-18T09:53:45;146377.84;;;18.74;99.20
14689;BME280;7432;48.728;9.154;2023-09-18T09:56:13;146403.47;;;18.85;99.59
14689;BME280;7432;48.728;9.154;2023-09-18T09:58:39;146425.34;;;18.94;99.01
14689;BME280;7432;48.728;9.154;2023-09-18T10:01:11;146481.41;;;19.17;98.73
14689;BME280;7432;48.728;9.154;2023-09-18T10:03:43;146516.69;;;19.32;96.51
14689;BME280;7432;48.728;9.154;2023-09-18T10:06:10;146520.38;;;19.33;95.40
14689;BME280;7432;48.728;9.154;2023-09-18T10:08:39;146536.22;;;19.40;95.01
14689;BME280;7432;48.728;9.154;2023-09-18T10:11:08;146563.03;;;19.51;94.69
14689;BME280;7432;48.728;9.154;2023-09-18T10:13:40;146574.03;;;19.56;95.47
14689;BME280;7432;48.728;9.154;2023-09-18T10:16:09;146577.66;;;19.57;95.29
14689;BME280;7432;48.728;9.154;2023-09-18T10:18:42;146539.91;;;19.41;94.77
14689;BME280;7432;48.728;9.154;2023-09-18T10:21:14;146520.38;;;19.33;95.18
14689;BME280;7432;48.728;9.154;2023-09-18T10:23:53;146515.53;;;19.31;95.76
14689;BME280;7432;48.728;9.154;2023-09-18T10:26:25;146499.66;;;19.25;97.14
14689;BME280;7432;48.728;9.154;2023-09-18T10:28:55;146500.88;;;19.25;97.21
14689;BME280;7432;48.728;9.154;2023-09-18T10:31:23;146500.88;;;19.25;97.44
14689;BME280;7432;48.728;9.154;2023-09-18T10:33:52;146493.56;;;19.22;97.14
14689;BME280;7432;48.728;9.154;2023-09-18T10:36:19;146466.78;;;19.11;98.24
14689;BME280;7432;48.728;9.154;2023-09-18T10:38:48;146468.00;;;19.12;98.01
14689;BME280;7432;48.728;9.154;2023-09-18T10:41:17;146438.75;;;19.00;97.74
14689;BME280;7432;48.728;9.154;2023-09-18T10:43:46;146405.88;;;18.86;98.64
14689;BME280;7432;48.728;9.154;2023-09-18T10:46:14;146397.34;;;18.82;98.82
14689;BME280;7432;48.728;9.154;2023-09-18T10:48:41;146393.69;;;18.81;98.82
14689;BME280;7432;48.728;9.154;2023-09-18T10:51:09;146381.53;;;18.76;97.44
14689;BME280;7432;48.728;9.154;2023-09-18T10:53:36;146382.75;;;18.76;97.99
14689;BME280;7432;48.728;9.154;2023-09-18T10:56:03;146368.13;;;18.70;98.21
14689;BME280;7432;48.728;9.154;2023-09-18T10:58:30;146352.28;;;18.64;98.91
14689;BME280;7432;48.728;9.154;2023-09-18T11:01:01;146351.09;;;18.63;99.71
14689;BME280;7432;48.728;9.154;2023-09-18T11:03:28;146342.56;;;18.60;100.00
14689;BME280;7432;48.728;9.154;2023-09-18T11:06:05;146326.72;;;18.53;99.97
14689;BME280;7432;48.728;9.154;2023-09-18T11:08:33;146307.19;;;18.45;99.57
14689;BME280;7432;48.728;9.154;2023-09-18T11:11:02;146305.97;;;18.45;99.42
14689;BME280;7432;48.728;9.154;2023-09-18T11:13:36;146313.31;;;18.48;100.00
14689;BME280;7432;48.728;9.154;2023-09-18T11:16:17;146332.81;;;18.56;100.00
14689;BME280;7432;48.728;9.154;2023-09-18T11:18:47;146347.44;;;18.62;100.00
14689;BME280;7432;48.728;9.154;2023-09-18T11:21:15;146358.38;;;18.66;99.80
14689;BME280;7432;48.728;9.154;2023-09-18T11:23:43;146348.66;;;18.62;100.00
14689;BME280;7432;48.728;9.154;2023-09-18T11:26:10;146359.59;;;18.67;98.06
14689;BME280;7432;48.728;9.154;2023-09-18T11:28:37;146386.38;;;18.78;97.67
14689;BME280;7432;48.728;9.154;2023-09-18T11:31:05;146363.28;;;18.68;96.18
14689;BME280;7432;48.728;9.154;2023-09-18T11:33:34;146343.78;;;18.60;96.40
14689;BME280;7432;48.728;9.154;2023-09-18T11:36:04;146346.19;;;18.61;95.73
14689;BME280;7432;48.728;9.154;2023-09-18T11:38:32;146360.81;;;18.67;96.22
14689;BME280;7432;48.728;9.154;2023-09-18T11:41:01;146396.16;;;18.82;97.38
14689;BME280;7432;48.728;9.154;2023-09-18T11:43:45;146411.94;;;18.88;96.46
14689;BME280;7432;48.728;9.154;2023-09-18T11:46:17;146444.84;;;19.02;96.70
14689;BME280;7432;48.728;9.154;2023-09-18T11:48:44;146446.06;;;19.03;94.71
14689;BME280;7432;48.728;9.154;2023-09-18T11:51:20;146436.34;;;18.99;92.79
14689;BME280;7432;48.728;9.154;2023-09-18T11:53:49;146475.31;;;19.15;93.46
14689;BME280;7432;48.728;9.154;2023-09-18T11:56:18;146519.16;;;19.33;94.59
14689;BME280;7432;48.728;9.154;2023-09-18T11:58:45;146535.06;;;19.39;94.54
14689;BME280;7432;48.728;9.154;2023-09-18T12:01:14;146563.03;;;19.51;93.54
14689;BME280;7432;48.728;9.154;2023-09-18T12:03:41;146575.25;;;19.56;93.53
14689;BME280;7432;48.728;9.154;2023-09-18T12:06:08;146592.31;;;19.63;94.08
14689;BME280;7432;48.728;9.154;2023-09-18T12:08:38;146604.47;;;19.68;93.70
14689;BME280;7432;48.728;9.154;2023-09-18T12:11:05;146637.38;;;19.82;93.62
14689;BME280;7432;48.728;9.154;2023-09-18T12:13:32;146621.56;;;19.75;92.03
14689;BME280;7432;48.728;9.154;2023-09-18T12:15:59;146621.56;;;19.75;90.65
14689;BME280;7432;48.728;9.154;2023-09-18T12:18:28;146563.03;;;19.51;90.58
14689;BME280;7432;48.728;9.154;2023-09-18T12:20:54;146558.19;;;19.49;91.82
14689;BME280;7432;48.728;9.154;2023-09-18T12:23:24;146581.34;;;19.59;92.13
14689;BME280;7432;48.728;9.154;2023-09-18T12:25:58;146584.97;;;19.60;91.99
14689;BME280;7432;48.728;9.154;2023-09-18T12:28:25;146592.31;;;19.63;91.75
14689;BME280;7432;48.728;9.154;2023-09-18T12:30:54;146615.44;;;19.73;92.13
14689;BME280;7432;48.728;9.154;2023-09-18T12:33:21;146592.31;;;19.63;90.81
14689;BME280;7432;48.728;9.154;2023-09-18T12:35:49;146636.16;;;19.81;90.36
14689;BME280;7432;48.728;9.154;2023-09-18T12:38:17;146632.53;;;19.80;90.12
14689;BME280;7432;48.728;9.154;2023-09-18T12:40:44;146703.19;;;20.09;88.68
14689;BME280;7432;48.728;9.154;2023-09-18T12:43:12;146765.44;;;20.35;87.31
14689;BME280;7432;48.728;9.154;2023-09-18T12:45:41;146837.34;;;20.64;86.30
14689;BME280;7432;48.728;9.154;2023-09-18T12:48:07;146921.50;;;20.99;84.05
14689;BME280;7432;48.728;9.154;2023-09-18T12:50:35;146956.94;;;21.14;85.37
14689;BME280;7432;48.728;9.154;2023-09-18T12:53:10;147036.22;;;21.47;82.73
14689;BME280;7432;48.728;9.154;2023-09-18T12:55:38;147061.84;;;21.57;83.78
14689;BME280;7432;48.728;9.154;2023-09-18T12:58:05;147133.88;;;21.87;83.22
14689;BME280;7432;48.728;9.154;2023-09-18T13:00:33;147135.09;;;21.88;81.29